Terminal Aerodrome Forecast
Issued by NWS

Home | Current Version | Previous Version | Text Only | Print | Product List | Glossary On
Versions: 1 2 3 4 5 6 7 8 9 10 11 12 13 14 15 16 17
000
FTUS45 KVEF 291100
TAFVGT
TAF
KVGT 291120Z 2912/3012 36004KT P6SM SCT140 OVC180
     FM291900 03007KT P6SM SCT120 OVC150
     FM300300 34005KT P6SM BKN120 OVC150
     FM300700 34005KT P6SM SCT060 OVC100 PROB30 3007/3012 -SHRA
      BKN060=

USA.gov is the U.S. government's official web portal to all federal, state and local government web resources and services.